Time;durP1;ratioP1;P1;durP2;ratioP2;P2;SDS_P1;SDS_P2;PMS_P1;PMS_P2;Temp;Humidity;BMP_temperature;BMP_pressure;BME280_temperature;BME280_humidity;BME280_pressure;Samples;Min_cycle;Max_cycle;Signal;HPM_P1;HPM_P2
2023/08/24 00:00:58;;;;;;;9.20;6.22;;;;;;;29.48;55.09;100312.84;4954354;29;20078;-69
2023/08/24 00:03:28;;;;;;;7.78;5.80;;;;;;;29.48;55.41;100308.22;4953848;29;20527;-69
2023/08/24 00:05:57;;;;;;;7.88;5.70;;;;;;;29.46;55.35;100299.31;4954120;29;20057;-69
2023/08/24 00:08:25;;;;;;;7.80;6.05;;;;;;;29.46;55.64;100298.47;4953904;29;20134;-69
2023/08/24 00:10:54;;;;;;;7.35;5.30;;;;;;;29.46;55.58;100303.97;4953871;29;20051;-69
2023/08/24 00:13:22;;;;;;;7.53;5.90;;;;;;;29.44;55.57;100297.84;4954350;29;20485;-69
2023/08/24 00:15:51;;;;;;;7.35;5.82;;;;;;;29.44;55.57;100295.09;4953849;29;20058;-69
2023/08/24 00:18:21;;;;;;;6.88;5.88;;;;;;;29.43;55.33;100296.97;4953892;29;20055;-69
2023/08/24 00:20:51;;;;;;;9.30;6.10;;;;;;;29.41;55.61;100301.00;4953817;29;20055;-69
2023/08/24 00:23:20;;;;;;;7.60;5.88;;;;;;;29.40;55.66;100293.81;4953636;29;20055;-69
2023/08/24 00:25:48;;;;;;;8.45;6.35;;;;;;;29.39;55.86;100294.88;4953686;29;20142;-69
2023/08/24 00:28:16;;;;;;;8.15;5.95;;;;;;;29.38;55.98;100290.44;4953569;29;20460;-68
2023/08/24 00:30:44;;;;;;;7.03;5.70;;;;;;;29.36;55.86;100296.16;4953425;29;20481;-68
2023/08/24 00:33:13;;;;;;;7.35;6.10;;;;;;;29.35;55.86;100302.72;4953686;29;20114;-69
2023/08/24 00:35:41;;;;;;;8.18;6.22;;;;;;;29.35;55.82;100297.22;4953681;29;20047;-70
2023/08/24 00:38:11;;;;;;;8.68;6.65;;;;;;;29.32;56.03;100309.47;4953528;29;20055;-69
2023/08/24 00:40:41;;;;;;;7.30;6.20;;;;;;;29.33;56.01;100307.56;4953549;29;20068;-69
2023/08/24 00:43:09;;;;;;;8.13;5.90;;;;;;;29.30;56.06;100306.09;4953432;29;20058;-70
2023/08/24 00:45:38;;;;;;;8.13;6.40;;;;;;;29.30;56.03;100303.34;4953295;29;20043;-69
2023/08/24 00:48:07;;;;;;;7.60;6.18;;;;;;;29.30;56.18;100306.09;4953241;29;20055;-69
2023/08/24 00:50:36;;;;;;;8.05;6.13;;;;;;;29.29;56.32;100301.66;4953231;29;20047;-69
2023/08/24 00:53:04;;;;;;;6.88;5.93;;;;;;;29.27;56.06;100308.44;4953440;29;20043;-69
2023/08/24 00:55:34;;;;;;;8.50;6.00;;;;;;;29.26;55.95;100298.50;4953185;29;20482;-70
2023/08/24 00:58:03;;;;;;;7.70;5.80;;;;;;;29.25;56.26;100307.81;4952600;29;20456;-69
2023/08/24 01:00:33;;;;;;;10.13;6.38;;;;;;;29.24;56.37;100303.34;4953248;29;20404;-69
2023/08/24 01:03:01;;;;;;;8.40;6.35;;;;;;;29.24;55.97;100300.59;4953170;29;20059;-69
2023/08/24 01:05:30;;;;;;;7.50;6.07;;;;;;;29.24;56.11;100312.44;4953156;29;20051;-69
2023/08/24 01:07:58;;;;;;;7.28;5.70;;;;;;;29.22;56.21;100308.19;4936599;29;20067;-69
2023/08/24 01:10:35;;;;;;;7.78;5.93;;;;;;;29.22;56.43;100311.78;4953279;29;20477;-69
2023/08/24 01:13:09;;;;;;;7.38;5.97;;;;;;;29.19;56.36;100311.38;4953167;29;20051;-69
2023/08/24 01:15:42;;;;;;;7.65;5.95;;;;;;;29.19;56.37;100309.47;4953068;29;20047;-69
2023/08/24 01:18:15;;;;;;;6.65;5.72;;;;;;;29.19;56.63;100309.47;4953048;29;20106;-69
2023/08/24 01:20:44;;;;;;;8.52;6.43;;;;;;;29.18;56.51;100304.22;4953365;29;20047;-69
2023/08/24 01:23:28;;;;;;;8.35;6.32;;;;;;;29.17;56.55;100313.50;4953141;29;20408;-69
2023/08/24 01:26:09;;;;;;;7.63;5.72;;;;;;;29.16;56.57;100298.94;4953095;29;20090;-69
2023/08/24 01:28:38;;;;;;;7.95;6.20;;;;;;;29.13;56.83;100288.34;4952981;29;20090;-69
2023/08/24 01:31:07;;;;;;;7.63;5.88;;;;;;;29.14;56.61;100295.53;4953252;29;20054;-69
2023/08/24 01:33:36;;;;;;;7.45;5.53;;;;;;;29.12;56.84;100291.31;4953910;29;20134;-69
2023/08/24 01:36:04;;;;;;;7.50;6.05;;;;;;;29.11;56.85;100300.63;4953915;29;20500;-69
2023/08/24 01:38:33;;;;;;;9.05;6.35;;;;;;;29.09;56.98;100309.06;4952820;29;20056;-69
2023/08/24 01:41:12;;;;;;;7.40;6.00;;;;;;;29.10;57.05;100309.91;4952936;29;20143;-69
2023/08/24 01:43:47;;;;;;;7.75;6.25;;;;;;;29.09;57.13;100303.56;4953458;29;20055;-69
2023/08/24 01:46:18;;;;;;;7.80;6.35;;;;;;;29.07;57.02;100309.28;4954380;29;20138;-69
2023/08/24 01:48:47;;;;;;;7.72;6.65;;;;;;;29.05;57.37;100296.81;4954860;29;20053;-69
2023/08/24 01:51:16;;;;;;;10.18;6.47;;;;;;;29.05;57.14;100303.16;4956103;29;20458;-69
2023/08/24 01:53:45;;;;;;;8.13;5.93;;;;;;;29.04;57.11;100290.47;4954528;29;20047;-69
2023/08/24 01:56:17;;;;;;;8.02;6.05;;;;;;;29.04;57.29;100297.84;4952919;29;20051;-68
2023/08/24 01:58:45;;;;;;;8.57;6.03;;;;;;;29.04;57.13;100301.44;4953157;29;20097;-69
2023/08/24 02:01:14;;;;;;;8.18;6.47;;;;;;;29.02;57.15;100302.72;4953212;29;20130;-69
2023/08/24 02:03:42;;;;;;;7.78;6.00;;;;;;;29.02;57.20;100308.22;4952563;29;20062;-69
2023/08/24 02:06:10;;;;;;;8.43;6.50;;;;;;;29.00;57.62;100299.34;4952595;29;20052;-69
2023/08/24 02:08:39;;;;;;;7.68;5.82;;;;;;;29.00;57.34;100299.34;4954512;28;20047;-70
2023/08/24 02:11:09;;;;;;;7.80;6.45;;;;;;;28.99;57.36;100297.66;4956177;29;20069;-69
2023/08/24 02:13:39;;;;;;;8.23;6.30;;;;;;;28.99;57.64;100295.75;4956087;29;20409;-69
2023/08/24 02:16:09;;;;;;;7.45;5.85;;;;;;;28.98;57.50;100296.81;4956023;29;20215;-69
2023/08/24 02:18:38;;;;;;;8.18;6.30;;;;;;;28.97;57.26;100299.78;4955797;29;20051;-69
2023/08/24 02:21:10;;;;;;;7.80;6.30;;;;;;;28.96;57.25;100287.97;4956184;29;20048;-69
2023/08/24 02:23:38;;;;;;;;;;;;;;;28.95;57.72;100297.25;4956333;29;20070;-68
2023/08/24 02:26:06;;;;;;;8.43;6.25;;;;;;;28.95;57.46;100302.75;4956087;29;19926;-68
2023/08/24 02:28:37;;;;;;;7.63;6.03;;;;;;;28.91;57.38;100292.38;4955866;29;20043;-68
2023/08/24 02:31:07;;;;;;;7.22;6.00;;;;;;;28.92;57.68;100294.91;4955625;29;20047;-69
2023/08/24 02:33:36;;;;;;;7.88;6.45;;;;;;;28.91;57.58;100284.97;4955774;29;20055;-69
2023/08/24 02:36:05;;;;;;;7.68;6.32;;;;;;;28.91;57.68;100284.97;4955770;29;20098;-69
2023/08/24 02:38:33;;;;;;;7.68;6.68;;;;;;;28.89;57.84;100287.09;4955724;29;20047;-69
2023/08/24 02:41:03;;;;;;;7.13;6.32;;;;;;;28.90;57.43;100296.19;4955722;29;20142;-69
2023/08/24 02:43:32;;;;;;;7.55;5.88;;;;;;;28.87;57.66;100283.69;4955336;29;20051;-69
2023/08/24 02:46:04;;;;;;;9.27;6.35;;;;;;;28.86;57.48;100284.75;4955803;29;20134;-69
2023/08/24 02:48:34;;;;;;;7.40;6.30;;;;;;;28.86;57.71;100284.75;4955613;29;20047;-69
2023/08/24 02:51:04;;;;;;;7.75;6.50;;;;;;;28.85;57.95;100280.28;4955567;29;20134;-69
2023/08/24 02:53:33;;;;;;;8.32;6.65;;;;;;;28.85;57.80;100280.28;4955445;29;20047;-69
2023/08/24 02:56:02;;;;;;;9.55;6.35;;;;;;;28.86;58.03;100286.66;4955150;29;20047;-69
2023/08/24 02:58:31;;;;;;;8.07;6.45;;;;;;;28.84;57.88;100281.34;4955340;29;20559;-69
2023/08/24 03:00:59;;;;;;;9.32;6.65;;;;;;;28.84;57.72;100284.09;4955432;29;20047;-69
2023/08/24 03:03:28;;;;;;;8.55;6.45;;;;;;;28.82;57.74;100280.72;4955152;29;20047;-69
2023/08/24 03:06:00;;;;;;;7.22;6.00;;;;;;;28.83;57.60;100278.81;4955054;29;20389;-68
2023/08/24 03:08:29;;;;;;;8.03;6.63;;;;;;;28.83;57.74;100285.16;4954979;29;20058;-68
2023/08/24 03:10:58;;;;;;;7.75;6.43;;;;;;;28.80;57.75;100277.34;4954864;29;20292;-68
2023/08/24 03:13:26;;;;;;;9.15;6.43;;;;;;;28.78;57.64;100280.31;4955089;29;20408;-68
2023/08/24 03:15:55;;;;;;;8.55;6.07;;;;;;;28.80;57.96;100282.84;4954854;29;20052;-68
2023/08/24 03:18:23;;;;;;;9.13;6.00;;;;;;;28.78;57.79;100288.53;4954924;29;20054;-68
2023/08/24 03:20:51;;;;;;;6.80;5.97;;;;;;;28.78;57.78;100284.97;4953850;28;20050;-68
2023/08/24 03:23:21;;;;;;;7.80;6.32;;;;;;;28.76;58.16;100282.44;4954614;29;20578;-67
2023/08/24 03:25:49;;;;;;;8.55;6.95;;;;;;;28.77;58.12;100283.28;4954624;29;20493;-68
2023/08/24 03:28:18;;;;;;;8.35;6.35;;;;;;;28.74;57.81;100281.75;4954614;29;20062;-69
2023/08/24 03:30:48;;;;;;;9.43;6.47;;;;;;;28.76;57.97;100281.59;4954894;29;20051;-68
2023/08/24 03:33:16;;;;;;;7.60;6.63;;;;;;;28.74;58.34;100280.91;4954602;29;20049;-68
2023/08/24 03:35:45;;;;;;;8.55;6.30;;;;;;;28.74;58.46;100283.66;4954406;29;20074;-69
2023/08/24 03:38:14;;;;;;;8.43;6.60;;;;;;;28.74;58.12;100283.66;4954470;29;20051;-69
2023/08/24 03:40:43;;;;;;;7.72;6.32;;;;;;;28.72;58.31;100289.38;4954597;29;20058;-69
2023/08/24 03:43:12;;;;;;;8.88;6.85;;;;;;;28.71;58.00;100284.94;4954469;29;20126;-68
2023/08/24 03:45:43;;;;;;;9.10;6.63;;;;;;;28.70;58.36;100287.91;4954239;29;20051;-67
2023/08/24 03:48:11;;;;;;;8.65;6.70;;;;;;;28.70;58.19;100296.97;4954332;29;20156;-68
2023/08/24 03:50:39;;;;;;;7.63;6.60;;;;;;;28.70;58.16;100293.38;4954166;29;20134;-69
2023/08/24 03:53:08;;;;;;;8.73;6.57;;;;;;;28.68;58.39;100290.84;4954377;29;20420;-69
2023/08/24 03:55:36;;;;;;;8.35;6.43;;;;;;;28.67;58.65;100293.81;4954038;29;20510;-69
2023/08/24 03:58:05;;;;;;;9.65;6.53;;;;;;;28.66;58.38;100298.47;4954347;29;20055;-69
2023/08/24 04:00:35;;;;;;;9.63;6.35;;;;;;;28.67;58.59;100296.56;4954170;29;20051;-69
2023/08/24 04:03:04;;;;;;;8.38;6.38;;;;;;;28.65;58.51;100295.91;4953964;29;20047;-69
2023/08/24 04:05:35;;;;;;;8.27;6.50;;;;;;;28.66;58.65;100294.84;4954183;29;20142;-69
2023/08/24 04:08:04;;;;;;;9.00;6.32;;;;;;;28.64;58.34;100299.69;4954167;29;20063;-69
2023/08/24 04:10:32;;;;;;;8.10;6.25;;;;;;;28.63;58.67;100293.38;4954212;29;20055;-69
2023/08/24 04:13:00;;;;;;;8.13;6.22;;;;;;;28.62;58.66;100294.44;4953922;29;20047;-68
2023/08/24 04:15:30;;;;;;;8.65;6.32;;;;;;;28.61;58.68;100294.63;4953712;29;20055;-68
2023/08/24 04:17:58;;;;;;;9.40;6.78;;;;;;;28.61;58.78;100300.97;4953832;29;20051;-68
2023/08/24 04:20:27;;;;;;;7.75;6.20;;;;;;;28.60;58.77;100293.78;4953810;29;20496;-69
2023/08/24 04:22:56;;;;;;;7.20;6.13;;;;;;;28.60;58.88;100302.03;4953785;29;20126;-68
2023/08/24 04:25:24;;;;;;;10.48;7.10;;;;;;;28.59;58.89;100304.97;4953611;29;20138;-68
2023/08/24 04:27:52;;;;;;;8.45;6.32;;;;;;;28.58;58.54;100300.56;4953501;29;20047;-68
2023/08/24 04:30:21;;;;;;;7.50;6.55;;;;;;;28.55;58.93;100299.03;4953169;28;20043;-68
2023/08/24 04:32:51;;;;;;;9.60;6.30;;;;;;;28.56;58.67;100302.63;4953713;29;20051;-68
2023/08/24 04:35:20;;;;;;;9.23;6.68;;;;;;;28.56;58.75;100302.63;4953551;29;20106;-68
2023/08/24 04:37:48;;;;;;;8.35;6.53;;;;;;;28.55;58.94;100300.94;4953450;29;20130;-67
2023/08/24 04:40:17;;;;;;;8.85;6.60;;;;;;;28.55;59.03;100303.69;4953480;29;20051;-69
2023/08/24 04:42:45;;;;;;;8.55;6.57;;;;;;;28.54;58.73;100310.22;4953264;29;20047;-68
2023/08/24 04:45:14;;;;;;;9.20;6.60;;;;;;;28.56;59.14;100305.38;4953125;29;20484;-68
2023/08/24 04:47:42;;;;;;;9.70;7.10;;;;;;;28.54;58.99;100310.22;4953373;29;20097;-69
2023/08/24 04:50:15;;;;;;;8.27;6.38;;;;;;;28.54;58.92;100308.34;4953385;29;20106;-68
2023/08/24 04:52:43;;;;;;;8.98;6.55;;;;;;;28.53;59.16;100314.88;4953359;29;20047;-69
2023/08/24 04:55:11;;;;;;;8.90;6.85;;;;;;;28.54;59.27;100315.72;4952918;29;20063;-68
2023/08/24 04:57:39;;;;;;;8.70;6.25;;;;;;;28.51;58.98;100319.75;4953517;29;20051;-68
2023/08/24 05:00:15;;;;;;;9.98;7.15;;;;;;;28.51;59.40;100319.75;4953500;29;20150;-68
2023/08/24 05:02:44;;;;;;;8.20;6.50;;;;;;;28.51;59.08;100317.84;4953554;29;20051;-68
2023/08/24 05:05:17;;;;;;;10.18;7.18;;;;;;;28.50;59.29;100338.09;4953118;29;20066;-68
2023/08/24 05:07:45;;;;;;;9.73;6.93;;;;;;;28.50;59.15;100338.09;4953335;29;20062;-67
2023/08/24 05:10:17;;;;;;;10.03;6.93;;;;;;;28.50;59.36;100332.59;4953361;29;20043;-67
2023/08/24 05:12:45;;;;;;;9.35;6.80;;;;;;;28.49;59.42;100332.81;4953270;29;20086;-67
2023/08/24 05:15:14;;;;;;;10.00;6.82;;;;;;;28.48;58.96;100331.97;4953305;29;20047;-68
2023/08/24 05:17:42;;;;;;;9.10;6.90;;;;;;;28.48;59.30;100331.97;4952775;29;20043;-69
2023/08/24 05:20:11;;;;;;;9.77;7.05;;;;;;;28.48;58.89;100334.72;4952738;29;20074;-69
2023/08/24 05:22:41;;;;;;;9.52;6.70;;;;;;;28.49;59.45;100332.81;4952871;29;20138;-68
2023/08/24 05:25:10;;;;;;;8.15;6.15;;;;;;;28.47;59.13;100338.53;4952703;29;20051;-68
2023/08/24 05:27:38;;;;;;;9.07;6.75;;;;;;;28.47;59.38;100341.25;4953149;29;20047;-68
2023/08/24 05:30:07;;;;;;;8.77;6.40;;;;;;;28.47;59.36;100338.53;4952876;29;20044;-69
2023/08/24 05:32:38;;;;;;;7.38;6.47;;;;;;;28.47;59.11;100333.03;4952873;29;20043;-68
2023/08/24 05:35:08;;;;;;;9.38;6.95;;;;;;;28.47;59.04;100333.03;4952700;29;20567;-69
2023/08/24 05:37:36;;;;;;;8.73;6.80;;;;;;;28.46;59.54;100336.81;4953186;29;20051;-68
2023/08/24 05:40:07;;;;;;;9.38;7.00;;;;;;;28.46;59.41;100342.28;4952948;29;20122;-67
2023/08/24 05:42:36;;;;;;;9.23;6.70;;;;;;;28.45;59.61;100346.09;4952931;28;20407;-69
2023/08/24 05:45:05;;;;;;;9.13;6.70;;;;;;;28.45;59.19;100346.09;4956543;29;20502;-72
2023/08/24 05:47:33;;;;;;;8.88;6.70;;;;;;;28.45;59.42;100342.50;4956267;29;20070;-68
2023/08/24 05:50:02;;;;;;;8.40;6.65;;;;;;;28.44;59.55;100338.91;4956335;29;20138;-68
2023/08/24 05:52:30;;;;;;;8.20;6.10;;;;;;;28.43;59.56;100336.38;4956568;29;20047;-68
2023/08/24 05:54:58;;;;;;;10.18;6.97;;;;;;;28.43;59.33;100341.88;4957218;29;20150;-70
2023/08/24 05:57:27;;;;;;;9.60;6.55;;;;;;;28.44;59.36;100343.56;4956254;29;20106;-73
2023/08/24 05:59:55;;;;;;;8.70;6.68;;;;;;;28.44;59.36;100351.78;4956137;29;20503;-69
2023/08/24 06:02:24;;;;;;;9.68;6.50;;;;;;;28.43;59.79;100345.44;4938727;29;20488;-72
2023/08/24 06:04:52;;;;;;;9.98;6.88;;;;;;;28.43;59.79;100344.63;4956470;29;20043;-71
2023/08/24 06:07:21;;;;;;;8.18;6.95;;;;;;;28.43;59.97;100344.63;4956276;29;20059;-70
2023/08/24 06:09:49;;;;;;;8.75;6.72;;;;;;;28.43;59.71;100342.72;4955778;29;20051;-69
2023/08/24 06:12:17;;;;;;;8.98;6.63;;;;;;;28.42;59.81;100341.03;4953490;29;20054;-68
2023/08/24 06:14:47;;;;;;;8.75;6.55;;;;;;;28.41;60.02;100336.59;4955291;29;20051;-69
2023/08/24 06:17:15;;;;;;;8.45;6.80;;;;;;;28.42;59.91;100346.50;4955935;29;20400;-69
2023/08/24 06:19:44;;;;;;;9.45;6.88;;;;;;;28.42;59.74;100342.91;4955691;29;20043;-69
2023/08/24 06:22:12;;;;;;;8.65;6.50;;;;;;;28.41;59.90;100342.09;4955725;29;20054;-69
2023/08/24 06:24:43;;;;;;;9.95;6.40;;;;;;;28.41;59.54;100344.81;4953224;29;20047;-69
2023/08/24 06:27:11;;;;;;;9.35;6.82;;;;;;;28.39;59.56;100346.94;4955198;29;20134;-69
2023/08/24 06:29:43;;;;;;;7.60;6.50;;;;;;;28.39;59.31;100344.19;4955567;29;20106;-69
2023/08/24 06:32:13;;;;;;;9.93;6.85;;;;;;;28.40;59.45;100345.88;4955288;29;20039;-69
2023/08/24 06:34:42;;;;;;;9.15;6.63;;;;;;;28.39;59.70;100346.94;4955007;29;20090;-69
2023/08/24 06:37:13;;;;;;;9.95;6.63;;;;;;;28.38;59.48;100344.41;4955030;29;20139;-70
2023/08/24 06:39:47;;;;;;;7.97;6.22;;;;;;;28.40;59.91;100347.78;4953331;29;20055;-71
2023/08/24 06:42:16;;;;;;;8.48;6.20;;;;;;;28.39;59.73;100341.44;4955700;29;20468;-71
2023/08/24 06:44:44;;;;;;;9.38;6.68;;;;;;;28.39;59.51;100346.94;4955568;29;20086;-70
2023/08/24 06:47:15;;;;;;;8.55;6.60;;;;;;;28.38;59.98;100345.25;4955636;29;20062;-70
2023/08/24 06:49:43;;;;;;;9.95;7.07;;;;;;;28.40;59.61;100348.63;4955311;29;20043;-70
2023/08/24 06:52:11;;;;;;;7.60;6.47;;;;;;;28.39;59.80;100346.94;4955325;29;20047;-70
2023/08/24 06:54:40;;;;;;;7.75;6.70;;;;;;;28.39;59.50;100348.84;4955307;28;20047;-69
2023/08/24 06:57:09;;;;;;;9.52;6.70;;;;;;;28.39;59.96;100352.41;4955321;29;20074;-70
2023/08/24 06:59:37;;;;;;;7.75;6.30;;;;;;;28.39;59.80;100346.94;4955181;29;20483;-71
2023/08/24 07:02:06;;;;;;;9.88;6.47;;;;;;;28.39;59.82;100346.09;4955024;29;20106;-71
2023/08/24 07:04:36;;;;;;;10.52;6.35;;;;;;;28.39;60.02;100346.94;4954417;29;20282;-70
2023/08/24 07:07:05;;;;;;;8.95;6.95;;;;;;;28.39;59.57;100346.09;4954941;29;20051;-70
2023/08/24 07:09:33;;;;;;;9.57;7.00;;;;;;;28.40;59.98;100347.78;4954765;29;20054;-70
2023/08/24 07:12:02;;;;;;;9.98;6.95;;;;;;;28.39;59.71;100344.19;4954022;29;20062;-70
2023/08/24 07:14:30;;;;;;;9.27;6.88;;;;;;;28.39;59.87;100346.94;4954759;29;20082;-69
2023/08/24 07:16:58;;;;;;;10.50;6.97;;;;;;;28.37;60.10;100349.00;4954867;29;20058;-70
2023/08/24 07:19:26;;;;;;;9.35;6.60;;;;;;;28.40;60.12;100343.13;4954524;29;20047;-70
2023/08/24 07:21:56;;;;;;;9.63;7.43;;;;;;;28.40;59.71;100342.28;4954690;29;20506;-69
2023/08/24 07:24:26;;;;;;;9.23;6.88;;;;;;;28.39;60.13;100335.97;4954407;29;20552;-71
2023/08/24 07:27:11;;;;;;;9.30;7.35;;;;;;;28.39;60.23;100351.56;4954697;29;20050;-70
2023/08/24 07:29:40;;;;;;;9.85;7.53;;;;;;;28.39;60.02;100355.16;4954519;29;20043;-70
2023/08/24 07:32:08;;;;;;;8.90;6.75;;;;;;;28.38;59.98;100350.72;4954542;29;20307;-70
2023/08/24 07:34:36;;;;;;;10.30;7.78;;;;;;;28.38;59.79;100350.72;4954756;29;20058;-70
2023/08/24 07:37:06;;;;;;;9.43;7.32;;;;;;;28.39;59.89;100346.94;4954705;29;20047;-70
2023/08/24 07:39:34;;;;;;;9.82;7.00;;;;;;;28.39;59.71;100346.94;4954603;29;20334;-71
2023/08/24 07:42:02;;;;;;;10.38;7.20;;;;;;;28.40;59.99;100345.03;4954456;29;20133;-70
2023/08/24 07:44:31;;;;;;;9.95;7.10;;;;;;;28.39;60.14;100341.44;4954258;29;20408;-70
2023/08/24 07:46:59;;;;;;;8.77;6.85;;;;;;;28.40;59.66;100342.28;4954176;29;20051;-70
2023/08/24 07:49:27;;;;;;;10.35;7.68;;;;;;;28.43;60.16;100344.63;4954523;29;20051;-70
2023/08/24 07:51:57;;;;;;;9.77;7.10;;;;;;;28.41;59.79;100333.84;4954128;29;20054;-70
2023/08/24 07:54:26;;;;;;;9.10;7.10;;;;;;;28.42;59.87;100343.75;4954124;29;20047;-70
2023/08/24 07:56:54;;;;;;;9.50;6.45;;;;;;;28.44;59.59;100343.56;4954275;29;20055;-70
2023/08/24 07:59:23;;;;;;;9.18;7.10;;;;;;;28.44;59.60;100349.88;4953625;29;20389;-70
2023/08/24 08:01:52;;;;;;;8.48;6.60;;;;;;;28.43;59.59;100348.19;4953881;29;20134;-70
2023/08/24 08:04:20;;;;;;;8.15;6.57;;;;;;;28.44;59.58;100355.38;4953994;29;20044;-70
2023/08/24 08:06:48;;;;;;;9.15;7.25;;;;;;;28.44;59.72;100349.88;4953312;28;20492;-70
2023/08/24 08:09:17;;;;;;;10.02;7.50;;;;;;;28.45;59.46;100351.56;4953815;29;20051;-70
2023/08/24 08:11:46;;;;;;;9.30;6.88;;;;;;;28.45;59.51;100351.56;4953827;29;20044;-70
2023/08/24 08:14:15;;;;;;;8.95;6.88;;;;;;;28.46;59.34;100355.16;4953832;29;20055;-70
2023/08/24 08:16:43;;;;;;;9.00;6.85;;;;;;;28.47;59.06;100351.38;4953827;29;20055;-70
2023/08/24 08:19:11;;;;;;;9.05;7.75;;;;;;;28.46;58.87;100347.78;4953586;29;20137;-70
2023/08/24 08:21:39;;;;;;;10.50;7.07;;;;;;;28.46;59.06;100350.53;4953777;29;20047;-70
2023/08/24 08:24:08;;;;;;;8.63;6.60;;;;;;;28.47;58.87;100354.97;4953768;29;20078;-70
2023/08/24 08:26:36;;;;;;;11.48;7.22;;;;;;;28.48;58.84;100362.16;4936781;29;20054;-70
2023/08/24 08:29:06;;;;;;;10.82;7.22;;;;;;;28.48;58.39;100356.66;4953901;29;20110;-70
2023/08/24 08:31:37;;;;;;;8.65;6.90;;;;;;;28.49;58.52;100363.84;4953785;29;20085;-70
2023/08/24 08:34:05;;;;;;;9.63;7.00;;;;;;;28.50;58.65;100364.69;4953601;29;20049;-70
2023/08/24 08:36:33;;;;;;;9.88;6.80;;;;;;;28.50;58.85;100357.31;4953626;29;20090;-70
2023/08/24 08:39:04;;;;;;;9.35;6.25;;;;;;;28.52;58.77;100352.44;4936839;29;20074;-69
2023/08/24 08:41:40;;;;;;;9.95;7.28;;;;;;;28.54;59.15;100354.13;4953531;29;20055;-70
2023/08/24 08:44:12;;;;;;;9.25;6.55;;;;;;;28.55;59.12;100350.34;4953459;29;20317;-70
2023/08/24 08:46:41;;;;;;;;;;;;;;;28.56;58.77;100363.00;4953730;29;20106;-70
2023/08/24 08:49:10;;;;;;;8.23;6.07;;;;;;;28.56;59.26;100357.50;4953359;29;19922;-70
2023/08/24 08:51:41;;;;;;;8.95;6.50;;;;;;;28.55;59.15;100345.69;4953279;29;20051;-70
2023/08/24 08:54:09;;;;;;;8.93;6.80;;;;;;;28.57;58.99;100340.88;4953667;29;20054;-70
2023/08/24 08:56:38;;;;;;;8.57;6.65;;;;;;;28.60;59.28;100345.94;4953260;29;20066;-70
2023/08/24 08:59:10;;;;;;;10.20;6.50;;;;;;;28.59;58.95;100335.16;4953450;29;20055;-69
2023/08/24 09:01:38;;;;;;;9.50;6.95;;;;;;;28.60;59.42;100337.69;4953387;29;20420;-71
2023/08/24 09:04:07;;;;;;;8.30;6.60;;;;;;;28.62;59.13;100340.22;4953182;29;20098;-70
2023/08/24 09:06:36;;;;;;;8.85;6.60;;;;;;;28.62;59.01;100334.75;4953145;29;20047;-70
2023/08/24 09:09:05;;;;;;;7.50;6.10;;;;;;;28.63;59.29;100328.19;4953291;29;20102;-70
2023/08/24 09:11:34;;;;;;;8.32;6.60;;;;;;;28.63;59.07;100326.28;4953313;29;20050;-70
2023/08/24 09:14:02;;;;;;;8.27;6.47;;;;;;;28.64;58.98;100329.88;4953344;29;20397;-71
2023/08/24 09:16:33;;;;;;;7.68;6.13;;;;;;;28.65;58.97;100328.81;4953136;29;20075;-69
2023/08/24 09:19:06;;;;;;;7.95;6.05;;;;;;;28.67;58.98;100329.50;4955877;29;20088;-70
2023/08/24 09:21:38;;;;;;;8.90;6.10;;;;;;;28.68;58.84;100331.19;4957154;29;20054;-70
2023/08/24 09:24:08;;;;;;;8.40;6.17;;;;;;;28.67;58.78;100329.50;4956921;29;20058;-70
2023/08/24 09:26:42;;;;;;;7.55;6.15;;;;;;;28.68;58.83;100328.44;4956804;29;20126;-69
2023/08/24 09:29:15;;;;;;;7.95;6.15;;;;;;;28.69;58.97;100330.13;4956650;29;20053;-70
2023/08/24 09:31:45;;;;;;;8.35;5.70;;;;;;;28.71;58.31;100328.00;4957069;29;20090;-70
2023/08/24 09:34:13;;;;;;;8.50;6.05;;;;;;;28.71;58.75;100322.53;4956867;29;20520;-70
2023/08/24 09:36:41;;;;;;;7.88;5.95;;;;;;;28.72;58.60;100318.72;4956977;29;20051;-70
2023/08/24 09:39:12;;;;;;;7.78;6.07;;;;;;;28.72;58.83;100313.22;4956729;29;20051;-69
2023/08/24 09:41:42;;;;;;;7.88;5.80;;;;;;;28.74;58.58;100313.84;4939499;29;20489;-70
2023/08/24 09:44:11;;;;;;;6.93;5.80;;;;;;;28.76;58.47;100314.53;4956896;29;20070;-70
2023/08/24 09:46:40;;;;;;;8.65;6.25;;;;;;;28.76;58.58;100311.78;4956814;29;20043;-70
2023/08/24 09:49:11;;;;;;;9.35;6.20;;;;;;;28.78;58.66;100312.41;4956418;29;20147;-69
2023/08/24 09:51:41;;;;;;;7.47;6.10;;;;;;;28.79;58.63;100314.09;4956514;29;20054;-70
2023/08/24 09:54:10;;;;;;;8.85;5.90;;;;;;;28.79;58.72;100314.09;4956392;29;20110;-70
2023/08/24 09:56:40;;;;;;;8.05;5.95;;;;;;;28.82;58.45;100313.66;4956315;29;20159;-70
2023/08/24 09:59:13;;;;;;;8.88;5.78;;;;;;;28.83;58.32;100309.00;4956611;29;20448;-70
2023/08/24 10:01:47;;;;;;;7.47;5.50;;;;;;;28.85;58.38;100306.91;4956345;29;20189;-70
2023/08/24 10:04:22;;;;;;;7.40;5.28;;;;;;;28.87;58.36;100310.31;4939731;29;20047;-70
2023/08/24 10:06:56;;;;;;;7.47;5.43;;;;;;;28.88;58.15;100303.75;4956066;29;20066;-70
2023/08/24 10:09:32;;;;;;;6.55;5.05;;;;;;;28.88;58.06;100307.34;4956244;29;20086;-70
2023/08/24 10:12:05;;;;;;;7.68;5.90;;;;;;;28.90;57.77;100310.75;4956312;29;20055;-69
2023/08/24 10:14:40;;;;;;;7.50;5.50;;;;;;;28.92;57.81;100303.13;4956049;29;20063;-70
2023/08/24 10:17:10;;;;;;;6.63;4.85;;;;;;;28.93;57.89;100309.47;4956033;29;20520;-70
2023/08/24 10:19:44;;;;;;;6.72;5.60;;;;;;;28.96;57.70;100315.41;4956197;29;20213;-70
2023/08/24 10:22:13;;;;;;;7.70;5.60;;;;;;;28.98;57.83;100312.44;4956095;29;20185;-70
2023/08/24 10:24:43;;;;;;;6.32;5.22;;;;;;;28.99;57.50;100304.00;4956085;29;20496;-70
2023/08/24 10:27:13;;;;;;;7.25;4.93;;;;;;;29.00;57.67;100299.34;4956086;29;20503;-70
2023/08/24 10:29:41;;;;;;;6.45;5.28;;;;;;;29.03;57.52;100299.75;4955441;28;20062;-70
2023/08/24 10:32:10;;;;;;;7.07;5.57;;;;;;;29.05;57.53;100291.34;4955606;29;20385;-70
2023/08/24 10:34:39;;;;;;;7.35;5.25;;;;;;;29.05;57.33;100286.69;4938572;29;20567;-70
2023/08/24 10:37:12;;;;;;;7.28;5.78;;;;;;;29.09;57.12;100278.84;4955893;29;20098;-70
2023/08/24 10:39:46;;;;;;;7.70;5.40;;;;;;;29.11;57.07;100270.41;4955641;29;20054;-70
2023/08/24 10:42:15;;;;;;;7.32;5.38;;;;;;;29.12;57.07;100275.69;4955368;29;20047;-70
2023/08/24 10:44:46;;;;;;;7.35;5.13;;;;;;;29.14;56.60;100269.97;4955561;29;20047;-71
2023/08/24 10:47:16;;;;;;;6.47;4.85;;;;;;;29.15;56.45;100272.53;4955579;29;20187;-69
2023/08/24 10:49:45;;;;;;;9.93;5.38;;;;;;;29.17;56.07;100269.56;4955475;29;20079;-70
2023/08/24 10:52:22;;;;;;;6.60;4.95;;;;;;;29.19;56.12;100267.44;4955609;29;20047;-70
2023/08/24 10:54:52;;;;;;;7.18;4.93;;;;;;;29.21;55.92;100276.31;4954972;29;20070;-70
2023/08/24 10:57:22;;;;;;;7.63;5.35;;;;;;;29.24;55.98;100265.75;4954729;29;20058;-70
2023/08/24 11:00:06;;;;;;;6.85;5.28;;;;;;;29.26;56.19;100265.53;4955393;29;20059;-70
2023/08/24 11:02:45;;;;;;;7.28;5.35;;;;;;;29.30;55.85;100269.53;4955391;29;20118;-70
2023/08/24 11:05:19;;;;;;;6.03;4.88;;;;;;;29.32;55.72;100264.66;4955188;29;20142;-70
2023/08/24 11:07:57;;;;;;;7.65;4.93;;;;;;;29.31;55.60;100263.81;4954961;29;20500;-70
2023/08/24 11:10:27;;;;;;;6.78;5.00;;;;;;;29.35;55.61;100258.75;4955261;29;20090;-70
2023/08/24 11:13:07;;;;;;;6.90;4.97;;;;;;;29.40;55.11;100267.19;4955054;29;20058;-70
2023/08/24 11:15:39;;;;;;;7.15;5.22;;;;;;;29.42;55.10;100258.72;4954944;29;20388;-70
2023/08/24 11:18:25;;;;;;;6.75;5.18;;;;;;;29.43;55.03;100255.75;4954959;29;20051;-70
2023/08/24 11:20:55;;;;;;;6.45;5.10;;;;;;;29.46;54.81;100266.34;4955021;29;20416;-71
2023/08/24 11:23:26;;;;;;;7.22;5.05;;;;;;;29.50;54.88;100251.13;4954948;29;20079;-70
2023/08/24 11:25:57;;;;;;;6.45;4.90;;;;;;;29.51;54.72;100251.97;4954753;29;20150;-70
2023/08/24 11:28:26;;;;;;;6.63;5.20;;;;;;;29.53;54.98;100258.97;4954680;29;20413;-70
2023/08/24 11:30:56;;;;;;;6.65;4.82;;;;;;;29.56;54.40;100253.03;4954821;29;20047;-70
2023/08/24 11:33:31;;;;;;;5.85;4.50;;;;;;;29.60;53.70;100250.69;4954872;29;20047;-70
2023/08/24 11:36:01;;;;;;;6.00;4.95;;;;;;;29.63;53.53;100248.38;4954701;29;20094;-70